Time;durP1;ratioP1;P1;durP2;ratioP2;P2;SDS_P1;SDS_P2;PMS_P1;PMS_P2;Temp;Humidity;BMP_temperature;BMP_pressure;BME280_temperature;BME280_humidity;BME280_pressure;Samples;Min_cycle;Max_cycle;Signal;HPM_P1;HPM_P2
2022/01/28 00:01:55;;;;;;;9.93;5.70;;;;;;;8.81;100.00;102517.22;5094388;28;19927;-53
2022/01/28 00:04:24;;;;;;;8.30;5.22;;;;;;;8.79;100.00;102519.00;5094006;28;20143;-53
2022/01/28 00:06:54;;;;;;;8.43;5.07;;;;;;;8.72;100.00;102512.13;5094180;28;20056;-53
2022/01/28 00:09:22;;;;;;;10.35;4.90;;;;;;;8.72;100.00;102509.47;5094235;28;20226;-53
2022/01/28 00:11:50;;;;;;;7.85;5.05;;;;;;;8.72;100.00;102506.81;5094231;28;20052;-53
2022/01/28 00:14:26;;;;;;;7.85;4.93;;;;;;;8.74;100.00;102512.94;5094368;28;20491;-53
2022/01/28 00:17:32;;;;;;;6.97;5.32;;;;;;;8.74;100.00;102500.59;5094597;28;20060;-53
2022/01/28 00:36:58;;;;;;;7.07;4.70;;;;;;;8.77;100.00;102494.34;5093730;28;20052;-53
2022/01/28 00:39:28;;;;;;;7.88;5.07;;;;;;;8.75;100.00;102485.59;5095153;28;20071;-53
2022/01/28 00:41:56;;;;;;;7.43;4.72;;;;;;;8.71;100.00;102494.53;5093921;28;20052;-53
2022/01/28 00:44:24;;;;;;;8.25;5.00;;;;;;;8.71;100.00;102497.16;5093971;28;20060;-53
2022/01/28 00:46:52;;;;;;;8.98;5.45;;;;;;;8.73;100.00;102503.28;5093864;28;20113;-53
2022/01/28 00:49:21;;;;;;;8.18;5.05;;;;;;;8.73;100.00;102509.44;5093846;28;20542;-53
2022/01/28 00:51:49;;;;;;;8.07;4.97;;;;;;;8.72;100.00;102505.06;5093845;28;20532;-53
2022/01/28 00:54:18;;;;;;;9.77;5.85;;;;;;;8.71;100.00;102513.91;5094050;28;20059;-53
2022/01/28 00:56:48;;;;;;;8.82;5.32;;;;;;;8.73;100.00;102514.72;5094037;28;20063;-53
2022/01/28 00:59:17;;;;;;;7.35;5.13;;;;;;;8.73;100.00;102519.16;5094354;28;20071;-53
2022/01/28 01:01:46;;;;;;;7.05;5.00;;;;;;;8.73;100.00;102508.59;5094396;28;20060;-53
2022/01/28 01:04:14;;;;;;;7.22;5.20;;;;;;;8.76;100.00;102507.63;5094831;28;20102;-53
2022/01/28 01:06:43;;;;;;;7.45;5.15;;;;;;;8.71;100.00;102507.75;5098358;28;20408;-53
2022/01/28 01:09:11;;;;;;;7.35;5.10;;;;;;;8.68;100.00;102510.47;5097802;28;20052;-53
2022/01/28 01:11:41;;;;;;;8.35;5.38;;;;;;;8.67;100.00;102508.72;5097723;28;20052;-53
2022/01/28 01:14:12;;;;;;;7.25;4.90;;;;;;;8.70;100.00;102513.94;5097450;28;20491;-53
2022/01/28 01:16:56;;;;;;;7.80;5.18;;;;;;;8.72;100.00;102509.47;5097986;28;20054;-53
2022/01/28 01:19:28;;;;;;;7.05;4.72;;;;;;;8.69;100.00;102517.47;5097008;28;20052;-53
2022/01/28 01:21:58;;;;;;;7.50;4.78;;;;;;;8.69;100.00;102514.81;5096977;28;20060;-53
2022/01/28 01:24:34;;;;;;;7.80;4.85;;;;;;;8.70;100.00;102511.28;5097135;28;20056;-53
2022/01/28 01:27:03;;;;;;;7.68;5.28;;;;;;;8.79;100.00;102510.19;5097767;28;20419;-53
2022/01/28 01:29:33;;;;;;;8.23;5.45;;;;;;;8.78;100.00;102512.00;5097398;28;20055;-53
2022/01/28 01:32:04;;;;;;;7.32;4.90;;;;;;;8.71;100.00;102515.69;5097044;28;20504;-53
2022/01/28 01:34:32;;;;;;;7.43;4.63;;;;;;;8.66;100.00;102509.63;5096646;28;20055;-53
2022/01/28 01:37:01;;;;;;;7.35;4.68;;;;;;;8.68;100.00;102510.47;5096891;28;20055;-53
2022/01/28 01:39:33;;;;;;;8.10;5.13;;;;;;;8.66;100.00;102507.00;5096874;28;20534;-53
2022/01/28 01:42:09;;;;;;;7.53;4.85;;;;;;;8.69;100.00;102509.53;5097850;28;20056;-53
2022/01/28 01:45:10;;;;;;;8.07;5.45;;;;;;;8.65;100.00;102523.75;5097218;28;20056;-53
2022/01/28 01:53:14;;;;;;;7.75;5.15;;;;;;;8.52;100.00;102545.19;5034047;28;20242;-53
2022/01/28 01:55:42;;;;;;;8.30;5.72;;;;;;;8.53;100.00;102544.25;5033751;28;20062;-53
2022/01/28 01:58:10;;;;;;;7.75;5.10;;;;;;;8.47;100.00;102544.41;5062525;28;20067;-53
2022/01/28 02:00:40;;;;;;;7.90;4.85;;;;;;;8.42;100.00;102540.94;5096670;28;20060;-53
2022/01/28 02:03:08;;;;;;;8.55;5.28;;;;;;;8.40;100.00;102541.88;5097039;28;20082;-53
2022/01/28 02:05:37;;;;;;;9.80;5.20;;;;;;;8.34;100.00;102556.97;5096483;28;20554;-53
2022/01/28 02:08:06;;;;;;;9.73;5.70;;;;;;;8.30;100.00;102550.00;5096328;28;20056;-53
2022/01/28 02:10:35;;;;;;;10.52;5.38;;;;;;;8.28;100.00;102548.28;5096232;28;20071;-53
2022/01/28 02:13:03;;;;;;;8.18;4.95;;;;;;;8.30;100.00;102550.00;5096299;28;20052;-53
2022/01/28 02:15:31;;;;;;;10.05;5.72;;;;;;;8.27;100.00;102543.91;5095593;28;20062;-53
2022/01/28 02:18:02;;;;;;;9.55;4.82;;;;;;;8.21;100.00;102546.69;5096635;28;20064;-53
2022/01/28 02:20:35;;;;;;;10.25;5.22;;;;;;;8.23;100.00;102563.38;5096482;28;20055;-53
2022/01/28 02:23:03;;;;;;;10.85;5.40;;;;;;;8.24;100.00;102562.47;5096251;28;20131;-53
2022/01/28 02:25:33;;;;;;;8.52;5.03;;;;;;;8.22;100.00;102569.56;5096685;28;20063;-53
2022/01/28 02:28:04;;;;;;;11.18;5.82;;;;;;;8.25;100.00;102574.78;5096853;28;20056;-53
2022/01/28 02:30:32;;;;;;;9.32;5.90;;;;;;;8.28;100.00;102580.88;5095661;28;20056;-53
2022/01/28 02:33:09;;;;;;;9.60;5.47;;;;;;;8.31;100.00;102580.84;5096688;28;20063;-53
2022/01/28 02:35:41;;;;;;;9.43;5.80;;;;;;;8.42;100.00;102579.75;5096476;28;20476;-53
2022/01/28 02:38:10;;;;;;;9.73;5.72;;;;;;;8.41;100.00;102581.53;5095524;28;20052;-53
2022/01/28 02:40:39;;;;;;;11.05;5.32;;;;;;;8.40;100.00;102579.78;5095999;28;20059;-53
2022/01/28 02:43:25;;;;;;;8.80;5.00;;;;;;;8.44;100.00;102581.50;5096261;28;20048;-53
2022/01/28 02:45:56;;;;;;;8.75;5.10;;;;;;;8.46;100.00;102590.28;5096205;28;20056;-53
2022/01/28 02:48:27;;;;;;;11.82;5.75;;;;;;;8.47;100.00;102586.72;5095571;28;20066;-53
2022/01/28 02:51:04;;;;;;;8.00;5.03;;;;;;;8.51;100.00;102583.09;5095297;28;20113;-53
2022/01/28 02:53:40;;;;;;;10.02;5.63;;;;;;;8.53;100.00;102586.59;5096072;28;20082;-53
2022/01/28 02:56:15;;;;;;;8.00;5.25;;;;;;;8.55;100.00;102582.13;5095952;28;20056;-53
2022/01/28 02:58:44;;;;;;;14.80;6.13;;;;;;;8.59;100.00;102590.00;5095979;28;20059;-53
2022/01/28 03:01:14;;;;;;;8.18;5.10;;;;;;;8.58;100.00;102583.84;5095318;28;20063;-53
2022/01/28 03:03:44;;;;;;;7.88;4.85;;;;;;;8.57;100.00;102582.09;5094997;28;20058;-53
2022/01/28 03:06:14;;;;;;;8.30;4.70;;;;;;;8.55;100.00;102576.84;5094967;28;20056;-53
2022/01/28 03:08:49;;;;;;;10.40;5.55;;;;;;;8.56;100.00;102572.44;5095672;28;20518;-53
2022/01/28 03:11:44;;;;;;;9.15;5.40;;;;;;;8.55;100.00;102563.63;5096244;28;20070;-53
2022/01/28 03:14:18;;;;;;;9.85;5.57;;;;;;;8.51;100.00;102567.25;5095013;28;20063;-53
2022/01/28 03:17:03;;;;;;;9.02;5.10;;;;;;;8.47;100.00;102560.28;5094782;28;20582;-53
2022/01/28 03:19:43;;;;;;;7.50;4.78;;;;;;;8.47;100.00;102560.28;5095906;28;20052;-53
2022/01/28 03:22:12;;;;;;;9.13;5.68;;;;;;;8.27;100.00;102533.31;5095840;28;20052;-53
2022/01/28 03:24:41;;;;;;;9.02;5.25;;;;;;;8.49;100.00;102561.13;5095383;28;20060;-53
2022/01/28 03:27:18;;;;;;;9.25;5.00;;;;;;;8.52;100.00;102563.72;5094535;28;20059;-53
2022/01/28 03:29:47;;;;;;;12.73;5.78;;;;;;;8.51;100.00;102561.94;5094834;28;20547;-53
2022/01/28 03:32:15;;;;;;;10.38;5.50;;;;;;;8.47;100.00;102560.28;5094993;28;20519;-53
2022/01/28 03:34:43;;;;;;;11.25;6.15;;;;;;;8.44;100.00;102559.44;5095574;28;20163;-53
2022/01/28 03:37:14;;;;;;;13.32;6.15;;;;;;;8.38;100.00;102566.56;5094659;28;20074;-53
2022/01/28 03:39:42;;;;;;;10.43;5.70;;;;;;;8.36;100.00;102556.94;5094373;28;20063;-53
2022/01/28 03:42:10;;;;;;;13.90;5.88;;;;;;;8.36;100.00;102552.53;5095746;28;20388;-53
2022/01/28 03:44:38;;;;;;;11.02;6.35;;;;;;;8.37;100.00;102556.03;5094284;28;20063;-53
2022/01/28 03:47:07;;;;;;;11.18;6.60;;;;;;;8.37;100.00;102554.28;5094489;28;20055;-53
2022/01/28 03:49:35;;;;;;;10.65;6.00;;;;;;;8.40;100.00;102552.47;5094455;28;20542;-53
2022/01/28 03:52:04;;;;;;;9.07;5.93;;;;;;;8.40;100.00;102542.75;5094730;28;20495;-53
2022/01/28 03:54:33;;;;;;;8.88;5.00;;;;;;;8.47;100.00;102547.06;5095546;28;20388;-53
2022/01/28 03:57:04;;;;;;;11.75;5.80;;;;;;;8.47;100.00;102539.13;5094864;28;20059;-53
2022/01/28 03:59:32;;;;;;;9.93;4.95;;;;;;;8.48;100.00;102540.84;5095565;28;20052;-53
2022/01/28 04:02:01;;;;;;;11.27;5.00;;;;;;;8.50;100.00;102540.81;5094217;28;20064;-53
2022/01/28 04:12:48;;;;;;;8.40;3.92;;;;;;;8.45;100.00;102535.63;5095437;28;20062;-53
2022/01/28 04:15:35;;;;;;;7.15;4.28;;;;;;;8.44;100.00;102541.84;5094781;28;20060;-53
2022/01/28 04:18:04;;;;;;;6.05;3.63;;;;;;;8.46;100.00;102536.50;5094833;28;20048;-53
2022/01/28 04:20:32;;;;;;;6.40;3.78;;;;;;;8.43;100.00;102545.38;5094127;28;20139;-53
2022/01/28 04:23:00;;;;;;;8.95;4.22;;;;;;;8.41;100.00;102546.28;5094095;28;20063;-53
2022/01/28 04:25:30;;;;;;;6.55;3.85;;;;;;;8.46;100.00;102547.09;5095267;28;20399;-53
2022/01/28 04:27:58;;;;;;;5.63;3.55;;;;;;;8.48;100.00;102546.13;5094043;28;20060;-53
2022/01/28 04:30:26;;;;;;;9.77;3.83;;;;;;;8.50;100.00;102549.63;5094340;28;20066;-53
2022/01/28 04:32:54;;;;;;;7.50;4.25;;;;;;;8.49;100.00;102563.75;5094063;28;20052;-53
2022/01/28 04:35:23;;;;;;;8.00;3.70;;;;;;;8.47;100.00;102560.28;5093706;28;20055;-53
2022/01/28 04:38:01;;;;;;;5.57;3.22;;;;;;;8.43;100.00;102563.88;5094292;28;20052;-53
2022/01/28 04:40:36;;;;;;;5.60;2.67;;;;;;;8.51;100.00;102576.97;5098653;28;20052;-53
2022/01/28 04:43:13;;;;;;;5.55;3.40;;;;;;;8.46;100.00;102570.91;5097754;28;20052;-53
2022/01/28 04:45:48;;;;;;;6.10;3.15;;;;;;;8.42;100.00;102577.97;5097683;28;20147;-53
2022/01/28 04:48:25;;;;;;;5.63;3.03;;;;;;;8.40;100.00;102594.78;5097622;28;20055;-53
2022/01/28 04:51:08;;;;;;;4.97;2.88;;;;;;;8.39;100.00;102593.91;5098324;28;20070;-53
2022/01/28 04:53:54;;;;;;;4.50;2.75;;;;;;;8.39;100.00;102593.91;5097826;28;20064;-53
2022/01/28 04:56:46;;;;;;;4.22;2.45;;;;;;;8.42;100.00;102596.47;5097423;28;20056;-53
2022/01/28 05:02:25;;;;;;;7.22;3.25;;;;;;;8.41;100.00;102592.09;5094463;28;20071;-53
2022/01/28 05:05:06;;;;;;;6.70;3.22;;;;;;;8.41;100.00;102592.09;5097859;28;20052;-53
2022/01/28 05:07:48;;;;;;;5.00;3.10;;;;;;;8.42;100.00;102593.81;5097443;28;20056;-53
2022/01/28 05:10:51;;;;;;;5.88;3.05;;;;;;;8.41;100.00;102602.69;5098687;28;20056;-53
2022/01/28 05:13:43;;;;;;;5.32;3.10;;;;;;;8.38;100.00;102602.75;5097933;28;20059;-53
2022/01/28 05:27:22;;;;;;;4.68;2.20;;;;;;;8.40;100.00;102602.72;5096807;28;20056;-53
2022/01/28 05:29:52;;;;;;;4.53;2.25;;;;;;;8.38;100.00;102603.59;5097616;28;20062;-53
2022/01/28 05:32:20;;;;;;;4.22;2.10;;;;;;;8.39;100.00;102601.84;5097322;28;20507;-53
2022/01/28 05:34:48;;;;;;;4.63;2.95;;;;;;;8.38;100.00;102613.31;5097951;28;20155;-53
2022/01/28 05:37:16;;;;;;;4.47;2.17;;;;;;;8.40;100.00;102610.66;5096849;28;20066;-53
2022/01/28 05:39:45;;;;;;;4.65;2.58;;;;;;;8.38;100.00;102611.53;5096910;28;20056;-53
2022/01/28 05:42:13;;;;;;;4.60;2.75;;;;;;;8.40;100.00;102616.78;5096832;28;20052;-53
2022/01/28 05:44:41;;;;;;;3.78;2.38;;;;;;;8.43;100.00;102606.19;5097976;28;20055;-53
2022/01/28 05:47:14;;;;;;;3.88;2.55;;;;;;;8.45;100.00;102609.66;5097440;28;20094;-53
2022/01/28 05:49:44;;;;;;;3.97;2.45;;;;;;;8.46;100.00;102597.34;5096789;28;20056;-53
2022/01/28 05:52:12;;;;;;;4.82;3.13;;;;;;;8.49;100.00;102600.78;5096919;28;20385;-53
2022/01/28 05:54:40;;;;;;;4.90;2.53;;;;;;;8.44;100.00;102596.47;5097501;28;20060;-53
2022/01/28 05:57:09;;;;;;;6.30;3.03;;;;;;;8.37;100.00;102593.03;5096693;28;20048;-53
2022/01/28 05:59:37;;;;;;;5.03;2.53;;;;;;;8.37;100.00;102595.69;5096797;28;20056;-53
2022/01/28 06:02:05;;;;;;;5.05;2.72;;;;;;;8.33;100.00;102589.59;5096828;28;20059;-53
2022/01/28 06:04:37;;;;;;;7.63;2.70;;;;;;;8.32;100.00;102586.97;5097514;28;20105;-53
2022/01/28 06:07:05;;;;;;;4.20;2.80;;;;;;;8.30;100.00;102586.16;5096134;28;20063;-53
2022/01/28 06:09:33;;;;;;;5.20;3.03;;;;;;;8.32;100.00;102584.34;5096280;28;20052;-53
2022/01/28 06:12:02;;;;;;;5.50;3.63;;;;;;;8.31;100.00;102587.91;5096253;28;20530;-53
2022/01/28 06:14:30;;;;;;;7.30;3.20;;;;;;;8.28;100.00;102590.59;5095998;28;20499;-53
2022/01/28 06:16:58;;;;;;;5.65;3.90;;;;;;;8.26;100.00;102593.28;5096361;28;20055;-53
2022/01/28 06:19:27;;;;;;;6.70;3.80;;;;;;;8.24;100.00;102588.91;5096034;28;20060;-53
2022/01/28 06:21:56;;;;;;;6.75;4.15;;;;;;;8.23;100.00;102597.75;5096253;28;20495;-53
2022/01/28 06:24:24;;;;;;;8.82;4.65;;;;;;;8.19;100.00;102589.88;5096531;28;20059;-53
2022/01/28 06:26:53;;;;;;;8.65;3.92;;;;;;;8.23;100.00;102589.81;5096212;28;20052;-53
2022/01/28 06:29:21;;;;;;;6.82;4.30;;;;;;;8.19;100.00;102586.38;5096252;28;20056;-53
2022/01/28 06:31:49;;;;;;;8.40;4.25;;;;;;;8.14;100.00;102586.44;5095738;28;20056;-53
2022/01/28 06:34:17;;;;;;;6.93;3.83;;;;;;;8.15;100.00;102600.53;5095775;28;20073;-53
2022/01/28 06:36:46;;;;;;;9.88;4.80;;;;;;;8.18;100.00;102601.34;5095968;28;20534;-53
2022/01/28 06:39:15;;;;;;;8.48;4.70;;;;;;;8.16;100.00;102599.63;5096128;28;20110;-53
2022/01/28 06:41:44;;;;;;;8.82;4.90;;;;;;;8.19;100.00;102608.38;5095588;28;20074;-53
2022/01/28 06:44:12;;;;;;;7.22;4.30;;;;;;;8.14;100.00;102612.88;5095451;28;20052;-53
2022/01/28 06:46:40;;;;;;;6.43;4.10;;;;;;;8.15;100.00;102621.69;5095942;28;20062;-53
2022/01/28 06:49:08;;;;;;;7.43;4.20;;;;;;;8.11;100.00;102612.94;5095665;28;20063;-53
2022/01/28 06:51:37;;;;;;;8.80;4.50;;;;;;;8.06;100.00;102628.00;5095685;28;20082;-53
2022/01/28 06:54:06;;;;;;;7.25;4.57;;;;;;;8.03;100.00;102630.69;5095608;28;20056;-53
2022/01/28 06:56:35;;;;;;;7.25;4.53;;;;;;;8.04;100.00;102629.81;5095531;28;20060;-53
2022/01/28 06:59:03;;;;;;;6.28;4.32;;;;;;;8.08;100.00;102630.63;5096097;28;20052;-53
2022/01/28 07:01:32;;;;;;;6.50;3.75;;;;;;;8.05;100.00;102626.25;5095031;28;20087;-53
2022/01/28 07:04:01;;;;;;;7.03;4.47;;;;;;;8.04;100.00;102621.88;5095067;28;20554;-53
2022/01/28 07:06:29;;;;;;;9.40;4.55;;;;;;;8.05;100.00;102626.25;5094900;28;20071;-53
2022/01/28 07:08:57;;;;;;;7.90;4.00;;;;;;;8.06;100.00;102632.44;5095021;28;20541;-53
2022/01/28 07:11:25;;;;;;;5.97;4.03;;;;;;;8.03;100.00;102630.69;5095116;28;20063;-53
2022/01/28 07:13:55;;;;;;;9.98;4.20;;;;;;;8.05;100.00;102630.66;5095352;28;20056;-53
2022/01/28 07:16:23;;;;;;;6.68;3.97;;;;;;;8.04;100.00;102640.38;5094651;28;20052;-53
2022/01/28 07:18:51;;;;;;;9.88;4.28;;;;;;;8.05;100.00;102635.97;5094826;28;20423;-53
2022/01/28 07:21:20;;;;;;;7.10;4.00;;;;;;;8.00;100.00;102636.94;5095172;28;20067;-53
2022/01/28 07:23:48;;;;;;;10.38;4.18;;;;;;;7.99;100.00;102636.94;5094774;28;20056;-53
2022/01/28 07:26:16;;;;;;;7.45;3.65;;;;;;;8.01;100.00;102640.44;5094592;28;20063;-53
2022/01/28 07:28:45;;;;;;;12.73;4.80;;;;;;;8.04;100.00;102645.66;5095077;28;20058;-53
2022/01/28 07:31:18;;;;;;;13.68;5.22;;;;;;;8.06;100.00;102650.94;5095227;28;20483;-53
2022/01/28 07:33:46;;;;;;;6.53;4.22;;;;;;;8.03;100.00;102657.13;5095692;28;20083;-53
2022/01/28 07:36:14;;;;;;;11.32;4.20;;;;;;;8.04;100.00;102655.38;5095831;28;20052;-53
2022/01/28 07:38:43;;;;;;;9.82;4.88;;;;;;;8.05;100.00;102657.09;5094338;28;20060;-53
2022/01/28 07:41:11;;;;;;;7.65;4.32;;;;;;;8.07;100.00;102665.88;5095663;28;20052;-53
2022/01/28 07:43:41;;;;;;;14.00;5.20;;;;;;;8.06;100.00;102675.59;5094756;28;20060;-53
2022/01/28 07:46:09;;;;;;;6.75;4.25;;;;;;;8.09;100.00;102670.25;5095148;28;20056;-53
2022/01/28 07:48:39;;;;;;;8.40;4.28;;;;;;;8.07;100.00;102679.97;5094386;28;20060;-53
2022/01/28 07:51:07;;;;;;;10.10;4.35;;;;;;;8.09;100.00;102683.47;5094603;28;20052;-53
2022/01/28 07:53:35;;;;;;;6.75;4.03;;;;;;;8.12;100.00;102678.13;5094680;28;20089;-53
2022/01/28 07:56:04;;;;;;;7.45;3.85;;;;;;;8.14;100.00;102684.25;5094187;28;20056;-53
2022/01/28 07:58:32;;;;;;;11.70;4.28;;;;;;;8.16;100.00;102679.81;5094262;28;20059;-53
2022/01/28 08:01:00;;;;;;;10.63;5.18;;;;;;;8.13;100.00;102687.78;5094772;28;20064;-53
2022/01/28 08:03:29;;;;;;;8.23;5.32;;;;;;;8.14;100.00;102680.75;5094163;28;20572;-51
2022/01/28 08:05:59;;;;;;;9.45;4.82;;;;;;;8.14;100.00;102684.25;5095206;28;20056;-52
2022/01/28 08:08:27;;;;;;;8.20;4.72;;;;;;;8.17;100.00;102694.78;5094691;28;20064;-52
2022/01/28 08:10:55;;;;;;;10.10;5.20;;;;;;;8.19;100.00;102692.97;5095437;28;20135;-52
2022/01/28 08:13:24;;;;;;;11.63;4.75;;;;;;;8.21;100.00;102689.44;5094230;28;20056;-52
2022/01/28 08:15:52;;;;;;;9.13;5.40;;;;;;;8.24;100.00;102702.59;5094315;28;20063;-52
2022/01/28 08:18:20;;;;;;;7.00;4.60;;;;;;;8.32;100.00;102709.50;5094274;28;20056;-52
2022/01/28 08:20:48;;;;;;;7.40;4.20;;;;;;;8.35;100.00;102720.03;5094958;28;20060;-52
2022/01/28 08:23:18;;;;;;;10.10;4.45;;;;;;;8.33;100.00;102715.66;5094702;28;20052;-52
2022/01/28 08:25:48;;;;;;;11.15;4.55;;;;;;;8.33;100.00;102715.66;5093882;28;20518;-52
2022/01/28 08:28:16;;;;;;;10.18;4.35;;;;;;;8.37;100.00;102715.59;5094096;28;20066;-52
2022/01/28 08:30:45;;;;;;;13.25;5.22;;;;;;;8.43;100.00;102714.63;5094391;28;20052;-52
2022/01/28 08:33:13;;;;;;;9.63;5.03;;;;;;;8.48;100.00;102726.00;5094328;28;20397;-52
2022/01/28 08:35:41;;;;;;;12.70;6.97;;;;;;;8.55;100.00;102722.34;5095118;28;20052;-52
2022/01/28 08:38:15;;;;;;;13.55;6.28;;;;;;;8.57;100.00;102730.25;5094229;28;20055;-52
2022/01/28 08:40:45;;;;;;;11.38;5.70;;;;;;;8.60;100.00;102729.34;5094313;28;20105;-52
2022/01/28 08:43:13;;;;;;;8.73;5.00;;;;;;;8.55;100.00;102730.28;5094760;28;20055;-52
2022/01/28 08:45:42;;;;;;;8.05;4.43;;;;;;;8.58;100.00;102731.13;5094976;28;20067;-53
2022/01/28 08:48:10;;;;;;;9.88;4.68;;;;;;;8.63;100.00;102738.06;5094083;28;20060;-52
2022/01/28 08:50:39;;;;;;;7.18;4.75;;;;;;;8.64;100.00;102741.59;5093976;28;20059;-52
2022/01/28 08:53:08;;;;;;;6.78;3.97;;;;;;;8.62;100.00;102741.63;5094351;28;20052;-52
2022/01/28 08:55:37;;;;;;;8.00;4.40;;;;;;;8.68;100.00;102738.00;5093865;28;20068;-53
2022/01/28 08:58:08;;;;;;;8.77;3.70;;;;;;;8.71;100.00;102733.53;5094596;28;20067;-53
2022/01/28 09:00:36;;;;;;;7.13;3.90;;;;;;;8.79;100.00;102741.28;5093956;28;20070;-53
2022/01/28 09:03:05;;;;;;;6.78;3.67;;;;;;;8.83;100.00;102742.13;5093941;28;20052;-53
2022/01/28 09:05:34;;;;;;;8.32;4.97;;;;;;;8.88;100.00;102750.84;5094618;28;20113;-53
2022/01/28 09:08:07;;;;;;;7.82;4.57;;;;;;;8.91;100.00;102746.38;5093958;28;20056;-53
2022/01/28 09:10:37;;;;;;;6.28;3.28;;;;;;;8.97;100.00;102749.81;5093367;28;20059;-53
2022/01/28 09:13:23;;;;;;;5.53;2.85;;;;;;;8.94;100.00;102742.78;5093750;28;20109;-53
2022/01/28 09:15:54;;;;;;;4.68;2.42;;;;;;;9.00;100.00;102739.16;5094157;28;20056;-54
2022/01/28 09:18:23;;;;;;;5.10;2.23;;;;;;;9.01;100.00;102747.06;5093264;28;20545;-53
2022/01/28 09:20:51;;;;;;;6.15;3.08;;;;;;;9.08;100.00;102755.75;5094113;28;20083;-53
2022/01/28 09:23:20;;;;;;;7.07;2.92;;;;;;;9.15;100.00;102753.88;5093884;28;20052;-53
2022/01/28 09:25:48;;;;;;;7.05;2.78;;;;;;;9.18;100.00;102752.03;5095287;28;20052;-53
2022/01/28 09:28:18;;;;;;;7.60;3.55;;;;;;;9.24;100.00;102751.00;5097647;28;20414;-53
2022/01/28 09:30:46;;;;;;;7.10;3.42;;;;;;;9.31;100.00;102749.97;5098270;28;20056;-53
2022/01/28 09:33:14;;;;;;;6.15;3.33;;;;;;;9.38;100.00;102748.97;5096985;28;20479;-53
2022/01/28 09:35:42;;;;;;;7.68;4.40;;;;;;;9.44;100.00;102751.44;5098403;28;20064;-53
2022/01/28 09:38:11;;;;;;;8.98;4.60;;;;;;;9.52;100.00;102748.66;5097179;28;20052;-53
2022/01/28 09:40:40;;;;;;;6.10;3.13;;;;;;;9.61;100.00;102742.28;5097164;28;20060;-53
2022/01/28 09:43:08;;;;;;;7.93;3.67;;;;;;;9.63;100.00;102744.00;5096823;28;20052;-53
2022/01/28 09:45:38;;;;;;;9.05;4.50;;;;;;;9.67;100.00;102758.03;5096548;28;20052;-53
2022/01/28 09:48:06;;;;;;;9.38;2.95;;;;;;;9.80;100.00;102758.63;5097834;28;20074;-53
2022/01/28 09:50:35;;;;;;;7.30;3.13;;;;;;;9.78;100.00;102761.28;5096702;28;20051;-53
2022/01/28 09:53:04;;;;;;;8.57;4.47;;;;;;;9.71;100.00;102764.13;5096971;28;20491;-53
2022/01/28 09:55:32;;;;;;;6.72;2.83;;;;;;;9.92;100.00;102782.22;5097609;28;20052;-53
2022/01/28 09:58:01;;;;;;;4.53;2.25;;;;;;;10.00;100.00;102789.97;5096369;28;20056;-53
2022/01/28 10:00:30;;;;;;;3.85;1.60;;;;;;;10.10;100.00;102790.63;5096583;28;20075;-53
2022/01/28 10:03:03;;;;;;;6.82;1.80;;;;;;;10.19;100.00;102803.69;5097440;28;20060;-53
2022/01/28 10:05:34;;;;;;;3.97;1.83;;;;;;;10.24;100.00;102807.09;5096177;28;20531;-53
2022/01/28 10:08:09;;;;;;;5.20;2.03;;;;;;;10.26;100.00;102813.22;5097556;28;20120;-53
2022/01/28 10:11:01;;;;;;;3.45;2.03;;;;;;;10.31;100.00;102808.69;5096786;28;20052;-53
2022/01/28 10:13:35;;;;;;;3.42;1.65;;;;;;;10.38;100.00;102814.75;5097449;28;20397;-53
2022/01/28 10:16:13;;;;;;;4.93;2.42;;;;;;;10.41;100.00;102820.84;5097111;28;20055;-53
2022/01/28 10:18:52;;;;;;;3.28;1.73;;;;;;;10.55;100.00;102814.31;5095905;28;20063;-53
2022/01/28 10:21:26;;;;;;;7.10;3.30;;;;;;;10.66;100.00;102822.88;5095843;28;20056;-53
2022/01/28 10:24:00;;;;;;;6.18;2.75;;;;;;;10.87;100.00;102815.25;5096940;28;20056;-53
2022/01/28 10:26:29;;;;;;;4.07;2.28;;;;;;;10.88;100.00;102814.38;5095793;28;20138;-53
2022/01/28 10:28:58;;;;;;;5.18;2.83;;;;;;;11.04;100.00;102818.31;5096509;28;20052;-53
2022/01/28 10:31:38;;;;;;;6.13;2.45;;;;;;;11.32;100.00;102820.22;5096464;28;20052;-53
2022/01/28 10:34:13;;;;;;;4.88;1.92;;;;;;;11.60;100.00;102825.63;5096500;28;20051;-53
2022/01/28 10:36:43;;;;;;;3.42;1.42;;;;;;;11.84;100.00;102821.34;5096311;28;20056;-53
2022/01/28 10:39:22;;;;;;;4.15;1.48;;;;;;;11.97;100.00;102818.31;5095700;28;20067;-53
2022/01/28 10:41:53;;;;;;;3.17;1.30;;;;;;;11.96;100.00;102827.22;5096080;28;20423;-53
2022/01/28 10:44:22;;;;;;;1.67;0.93;;;;;;;12.09;99.69;102825.94;5096607;28;20055;-53
2022/01/28 10:47:08;;;;;;;2.42;0.80;;;;;;;12.18;95.57;102822.97;5096185;28;20063;-53
2022/01/28 10:49:37;;;;;;;0.73;0.60;;;;;;;11.90;95.92;102826.47;5096175;28;20062;-53
2022/01/28 10:52:09;;;;;;;7.28;0.70;;;;;;;11.73;97.31;102814.59;5095501;28;20135;-53
2022/01/28 10:54:37;;;;;;;1.83;0.70;;;;;;;11.66;99.13;102830.72;5096139;28;20056;-53
2022/01/28 10:57:08;;;;;;;1.75;0.63;;;;;;;11.63;98.74;102829.97;5095599;28;20423;-53
2022/01/28 10:59:37;;;;;;;1.40;0.80;;;;;;;11.48;99.11;102821.53;5096194;28;20056;-53
2022/01/28 11:02:06;;;;;;;0.85;0.60;;;;;;;11.53;100.00;102821.38;5095925;28;20052;-53
2022/01/28 11:04:36;;;;;;;0.82;0.60;;;;;;;11.69;100.00;102824.47;5095786;28;20067;-53
2022/01/28 11:07:05;;;;;;;2.08;0.90;;;;;;;12.06;100.00;102812.72;5094952;28;20054;-53
2022/01/28 11:09:33;;;;;;;2.15;0.90;;;;;;;12.45;96.99;102815.00;5095152;28;20062;-53
2022/01/28 11:12:02;;;;;;;3.33;0.95;;;;;;;12.86;95.59;102809.19;5095044;28;20059;-54
2022/01/28 11:14:30;;;;;;;3.25;0.93;;;;;;;13.01;92.17;102806.84;5095064;28;20056;-54
2022/01/28 11:16:58;;;;;;;1.35;1.00;;;;;;;13.27;91.90;102805.03;5094993;28;20058;-54
2022/01/28 11:19:29;;;;;;;1.65;0.93;;;;;;;13.60;88.81;102798.50;5095129;28;20052;-54
2022/01/28 11:22:28;;;;;;;2.38;1.10;;;;;;;13.92;87.89;102800.78;5095228;28;20070;-54
2022/01/28 11:25:26;;;;;;;1.70;0.98;;;;;;;14.50;84.12;102794.84;5095344;28;20048;-54
2022/01/28 11:27:54;;;;;;;1.75;0.95;;;;;;;15.01;81.84;102789.13;5094612;28;20052;-54
2022/01/28 11:30:26;;;;;;;3.42;1.23;;;;;;;15.12;78.76;102792.19;5094731;28;20060;-54
2022/01/28 11:32:59;;;;;;;1.30;0.90;;;;;;;15.03;76.60;102781.94;5095423;28;20052;-54
2022/01/28 11:35:30;;;;;;;1.83;1.00;;;;;;;14.60;77.41;102771.31;5095888;28;20051;-54
2022/01/28 11:38:04;;;;;;;3.05;1.05;;;;;;;14.38;78.79;102776.66;5094490;28;20062;-54
2022/01/28 11:40:43;;;;;;;2.55;1.10;;;;;;;14.14;78.87;102770.56;5094354;28;20059;-54
2022/01/28 11:43:18;;;;;;;2.28;1.10;;;;;;;14.03;79.20;102768.31;5095811;28;20052;-54
2022/01/28 11:45:47;;;;;;;4.03;1.85;;;;;;;13.82;79.63;102767.41;5095537;28;20415;-54
2022/01/28 11:48:15;;;;;;;1.58;0.90;;;;;;;13.78;79.72;102768.44;5093950;28;20526;-54
2022/01/28 11:50:51;;;;;;;1.92;0.90;;;;;;;13.83;79.47;102770.94;5095290;28;20056;-54
2022/01/28 11:53:24;;;;;;;2.60;1.10;;;;;;;13.91;78.95;102767.03;5094173;28;20056;-54
2022/01/28 11:56:03;;;;;;;2.15;1.00;;;;;;;13.86;78.49;102758.34;5095570;28;20403;-54
2022/01/28 11:58:53;;;;;;;1.85;0.98;;;;;;;13.57;77.26;102770.16;5095000;28;20439;-54
2022/01/28 12:01:24;;;;;;;1.92;1.13;;;;;;;13.30;80.14;102770.25;5094889;28;20059;-53
2022/01/28 12:04:32;;;;;;;4.50;1.10;;;;;;;13.14;81.59;102766.44;5095350;28;20059;-54
2022/01/28 12:07:01;;;;;;;2.50;1.25;;;;;;;13.10;83.71;102759.50;5094000;28;20500;-54
2022/01/28 12:09:33;;;;;;;2.03;1.30;;;;;;;13.27;83.84;102762.38;5094826;28;20055;-54
2022/01/28 12:12:02;;;;;;;2.60;1.30;;;;;;;13.17;82.35;102756.53;5094360;28;20060;-54
2022/01/28 12:15:05;;;;;;;2.63;0.88;;;;;;;12.99;82.62;102746.53;5094989;28;20052;-54
2022/01/28 12:17:51;;;;;;;2.75;1.10;;;;;;;12.78;84.39;102753.53;5094515;28;20056;-53
2022/01/28 12:20:47;;;;;;;1.85;0.82;;;;;;;12.50;85.69;102727.00;5094093;28;20067;-54
2022/01/28 12:23:36;;;;;;;2.47;1.00;;;;;;;12.55;85.71;102747.22;5095029;28;20411;-54
2022/01/28 12:26:06;;;;;;;2.00;1.00;;;;;;;12.58;87.16;102744.44;5094726;28;20060;-54
2022/01/28 12:28:55;;;;;;;2.88;0.95;;;;;;;12.50;85.41;102749.16;5094657;28;20058;-54
2022/01/28 12:31:30;;;;;;;2.47;1.13;;;;;;;12.38;86.43;102745.13;5093812;28;20125;-54